<?xml version="1.0" encoding="UTF-8" standalone="no" ?>
<gpx xmlns="http://www.topografix.com/GPX/1/1" xmlns:xsi="http://www.w3.org/2001/XMLSchema-instance" xsi:schemaLocation="http://www.topografix.com/GPX/1/1 http://www.topografix.com/GPX/1/1/gpx.xsd" version="1.1" creator="VisuGPX - https://www.visugpx.com">
  <metadata>
    <name>Marche Adeps 10 KMs Meslin L Evêque. 09 fév 2014</name>
    <desc><![CDATA[Marche Adeps 10KMs Meslin L'Evêque
9 Février 2014]]></desc>
  </metadata>
  <trk>
    <name><![CDATA[Sequence 1]]></name>
    <trkseg>
      <trkpt lat="50.64941" lon="3.84787">
        <ele>41</ele>
        <time>2014-02-09T07:34:07Z</time>
      </trkpt>
      <trkpt lat="50.64936" lon="3.84793">
        <ele>42</ele>
        <time>2014-02-09T07:34:23Z</time>
      </trkpt>
      <trkpt lat="50.64941" lon="3.84772">
        <ele>41</ele>
        <time>2014-02-09T07:34:39Z</time>
      </trkpt>
      <trkpt lat="50.64938" lon="3.84752">
        <ele>41</ele>
        <time>2014-02-09T07:34:47Z</time>
      </trkpt>
      <trkpt lat="50.64936" lon="3.84738">
        <ele>40</ele>
        <time>2014-02-09T07:34:53Z</time>
      </trkpt>
      <trkpt lat="50.64942" lon="3.84712">
        <ele>40</ele>
        <time>2014-02-09T07:35:06Z</time>
      </trkpt>
      <trkpt lat="50.64949" lon="3.84695">
        <ele>39</ele>
        <time>2014-02-09T07:35:16Z</time>
      </trkpt>
      <trkpt lat="50.64956" lon="3.84675">
        <ele>39</ele>
        <time>2014-02-09T07:35:26Z</time>
      </trkpt>
      <trkpt lat="50.64964" lon="3.8465">
        <ele>37</ele>
        <time>2014-02-09T07:35:37Z</time>
      </trkpt>
      <trkpt lat="50.64966" lon="3.84627">
        <ele>37</ele>
        <time>2014-02-09T07:35:48Z</time>
      </trkpt>
      <trkpt lat="50.64973" lon="3.84603">
        <ele>37</ele>
        <time>2014-02-09T07:35:59Z</time>
      </trkpt>
      <trkpt lat="50.64978" lon="3.84583">
        <ele>35</ele>
        <time>2014-02-09T07:36:10Z</time>
      </trkpt>
      <trkpt lat="50.64986" lon="3.84559">
        <ele>35</ele>
        <time>2014-02-09T07:36:21Z</time>
      </trkpt>
      <trkpt lat="50.64989" lon="3.84538">
        <ele>35</ele>
        <time>2014-02-09T07:36:32Z</time>
      </trkpt>
      <trkpt lat="50.6499" lon="3.84516">
        <ele>34</ele>
        <time>2014-02-09T07:36:43Z</time>
      </trkpt>
      <trkpt lat="50.64996" lon="3.84497">
        <ele>34</ele>
        <time>2014-02-09T07:36:54Z</time>
      </trkpt>
      <trkpt lat="50.64999" lon="3.84475">
        <ele>34</ele>
        <time>2014-02-09T07:37:05Z</time>
      </trkpt>
      <trkpt lat="50.65001" lon="3.84454">
        <ele>34</ele>
        <time>2014-02-09T07:37:16Z</time>
      </trkpt>
      <trkpt lat="50.65005" lon="3.84428">
        <ele>34</ele>
        <time>2014-02-09T07:37:27Z</time>
      </trkpt>
      <trkpt lat="50.65013" lon="3.84415">
        <ele>34</ele>
        <time>2014-02-09T07:37:38Z</time>
      </trkpt>
      <trkpt lat="50.65027" lon="3.8442">
        <ele>34</ele>
        <time>2014-02-09T07:37:49Z</time>
      </trkpt>
      <trkpt lat="50.65041" lon="3.84424">
        <ele>34</ele>
        <time>2014-02-09T07:38:00Z</time>
      </trkpt>
      <trkpt lat="50.65054" lon="3.84431">
        <ele>34</ele>
        <time>2014-02-09T07:38:11Z</time>
      </trkpt>
      <trkpt lat="50.65066" lon="3.84434">
        <ele>33</ele>
        <time>2014-02-09T07:38:22Z</time>
      </trkpt>
      <trkpt lat="50.65086" lon="3.84431">
        <ele>33</ele>
        <time>2014-02-09T07:38:33Z</time>
      </trkpt>
      <trkpt lat="50.65103" lon="3.84428">
        <ele>33</ele>
        <time>2014-02-09T07:38:44Z</time>
      </trkpt>
      <trkpt lat="50.65119" lon="3.84422">
        <ele>32</ele>
        <time>2014-02-09T07:38:55Z</time>
      </trkpt>
      <trkpt lat="50.65135" lon="3.84416">
        <ele>32</ele>
        <time>2014-02-09T07:39:06Z</time>
      </trkpt>
      <trkpt lat="50.65151" lon="3.84411">
        <ele>31</ele>
        <time>2014-02-09T07:39:17Z</time>
      </trkpt>
      <trkpt lat="50.65168" lon="3.84406">
        <ele>31</ele>
        <time>2014-02-09T07:39:28Z</time>
      </trkpt>
      <trkpt lat="50.65184" lon="3.84399">
        <ele>31</ele>
        <time>2014-02-09T07:39:39Z</time>
      </trkpt>
      <trkpt lat="50.652" lon="3.8439">
        <ele>31</ele>
        <time>2014-02-09T07:39:50Z</time>
      </trkpt>
      <trkpt lat="50.65214" lon="3.84378">
        <ele>31</ele>
        <time>2014-02-09T07:40:01Z</time>
      </trkpt>
      <trkpt lat="50.65226" lon="3.84361">
        <ele>31</ele>
        <time>2014-02-09T07:40:12Z</time>
      </trkpt>
      <trkpt lat="50.65229" lon="3.84336">
        <ele>31</ele>
        <time>2014-02-09T07:40:23Z</time>
      </trkpt>
      <trkpt lat="50.65232" lon="3.84312">
        <ele>31</ele>
        <time>2014-02-09T07:40:34Z</time>
      </trkpt>
      <trkpt lat="50.65237" lon="3.84289">
        <ele>31</ele>
        <time>2014-02-09T07:40:45Z</time>
      </trkpt>
      <trkpt lat="50.65244" lon="3.8427">
        <ele>31</ele>
        <time>2014-02-09T07:40:56Z</time>
      </trkpt>
      <trkpt lat="50.6525" lon="3.84248">
        <ele>30</ele>
        <time>2014-02-09T07:41:08Z</time>
      </trkpt>
      <trkpt lat="50.65262" lon="3.84233">
        <ele>30</ele>
        <time>2014-02-09T07:41:18Z</time>
      </trkpt>
      <trkpt lat="50.65273" lon="3.84216">
        <ele>30</ele>
        <time>2014-02-09T07:41:29Z</time>
      </trkpt>
      <trkpt lat="50.65285" lon="3.842">
        <ele>30</ele>
        <time>2014-02-09T07:41:40Z</time>
      </trkpt>
      <trkpt lat="50.65298" lon="3.84184">
        <ele>29</ele>
        <time>2014-02-09T07:41:51Z</time>
      </trkpt>
      <trkpt lat="50.65311" lon="3.84171">
        <ele>29</ele>
        <time>2014-02-09T07:42:02Z</time>
      </trkpt>
      <trkpt lat="50.65325" lon="3.8416">
        <ele>29</ele>
        <time>2014-02-09T07:42:13Z</time>
      </trkpt>
      <trkpt lat="50.65339" lon="3.84151">
        <ele>29</ele>
        <time>2014-02-09T07:42:24Z</time>
      </trkpt>
      <trkpt lat="50.65353" lon="3.84143">
        <ele>29</ele>
        <time>2014-02-09T07:42:35Z</time>
      </trkpt>
      <trkpt lat="50.65367" lon="3.84134">
        <ele>29</ele>
        <time>2014-02-09T07:42:46Z</time>
      </trkpt>
      <trkpt lat="50.65381" lon="3.84126">
        <ele>29</ele>
        <time>2014-02-09T07:42:57Z</time>
      </trkpt>
      <trkpt lat="50.6539" lon="3.84112">
        <ele>29</ele>
        <time>2014-02-09T07:43:08Z</time>
      </trkpt>
      <trkpt lat="50.65393" lon="3.84094">
        <ele>29</ele>
        <time>2014-02-09T07:43:19Z</time>
      </trkpt>
      <trkpt lat="50.65397" lon="3.84073">
        <ele>29</ele>
        <time>2014-02-09T07:43:30Z</time>
      </trkpt>
      <trkpt lat="50.65404" lon="3.84049">
        <ele>29</ele>
        <time>2014-02-09T07:43:41Z</time>
      </trkpt>
      <trkpt lat="50.65412" lon="3.84023">
        <ele>29</ele>
        <time>2014-02-09T07:43:52Z</time>
      </trkpt>
      <trkpt lat="50.65419" lon="3.83999">
        <ele>29</ele>
        <time>2014-02-09T07:44:03Z</time>
      </trkpt>
      <trkpt lat="50.65426" lon="3.83977">
        <ele>29</ele>
        <time>2014-02-09T07:44:14Z</time>
      </trkpt>
      <trkpt lat="50.65432" lon="3.83955">
        <ele>28</ele>
        <time>2014-02-09T07:44:25Z</time>
      </trkpt>
      <trkpt lat="50.65438" lon="3.83934">
        <ele>28</ele>
        <time>2014-02-09T07:44:36Z</time>
      </trkpt>
      <trkpt lat="50.65444" lon="3.83917">
        <ele>28</ele>
        <time>2014-02-09T07:44:47Z</time>
      </trkpt>
      <trkpt lat="50.6545" lon="3.83892">
        <ele>28</ele>
        <time>2014-02-09T07:44:58Z</time>
      </trkpt>
      <trkpt lat="50.65457" lon="3.83868">
        <ele>27</ele>
        <time>2014-02-09T07:45:09Z</time>
      </trkpt>
      <trkpt lat="50.65464" lon="3.83845">
        <ele>27</ele>
        <time>2014-02-09T07:45:20Z</time>
      </trkpt>
      <trkpt lat="50.65467" lon="3.83819">
        <ele>27</ele>
        <time>2014-02-09T07:45:31Z</time>
      </trkpt>
      <trkpt lat="50.65469" lon="3.83794">
        <ele>27</ele>
        <time>2014-02-09T07:45:42Z</time>
      </trkpt>
      <trkpt lat="50.6547" lon="3.8377">
        <ele>27</ele>
        <time>2014-02-09T07:45:53Z</time>
      </trkpt>
      <trkpt lat="50.65471" lon="3.83746">
        <ele>27</ele>
        <time>2014-02-09T07:46:04Z</time>
      </trkpt>
      <trkpt lat="50.65472" lon="3.83722">
        <ele>27</ele>
        <time>2014-02-09T07:46:15Z</time>
      </trkpt>
      <trkpt lat="50.65473" lon="3.83699">
        <ele>27</ele>
        <time>2014-02-09T07:46:26Z</time>
      </trkpt>
      <trkpt lat="50.6548" lon="3.83671">
        <ele>27</ele>
        <time>2014-02-09T07:46:39Z</time>
      </trkpt>
      <trkpt lat="50.65486" lon="3.83653">
        <ele>27</ele>
        <time>2014-02-09T07:46:48Z</time>
      </trkpt>
      <trkpt lat="50.65494" lon="3.83634">
        <ele>27</ele>
        <time>2014-02-09T07:46:59Z</time>
      </trkpt>
      <trkpt lat="50.65499" lon="3.83616">
        <ele>28</ele>
        <time>2014-02-09T07:47:10Z</time>
      </trkpt>
      <trkpt lat="50.65506" lon="3.83605">
        <ele>28</ele>
        <time>2014-02-09T07:47:21Z</time>
      </trkpt>
      <trkpt lat="50.65516" lon="3.83593">
        <ele>28</ele>
        <time>2014-02-09T07:47:32Z</time>
      </trkpt>
      <trkpt lat="50.65527" lon="3.83581">
        <ele>28</ele>
        <time>2014-02-09T07:47:43Z</time>
      </trkpt>
      <trkpt lat="50.65536" lon="3.83569">
        <ele>28</ele>
        <time>2014-02-09T07:47:54Z</time>
      </trkpt>
      <trkpt lat="50.65548" lon="3.83557">
        <ele>28</ele>
        <time>2014-02-09T07:48:05Z</time>
      </trkpt>
      <trkpt lat="50.65559" lon="3.83542">
        <ele>28</ele>
        <time>2014-02-09T07:48:16Z</time>
      </trkpt>
      <trkpt lat="50.65571" lon="3.83525">
        <ele>28</ele>
        <time>2014-02-09T07:48:27Z</time>
      </trkpt>
      <trkpt lat="50.65577" lon="3.83507">
        <ele>29</ele>
        <time>2014-02-09T07:48:38Z</time>
      </trkpt>
      <trkpt lat="50.65584" lon="3.83491">
        <ele>29</ele>
        <time>2014-02-09T07:48:49Z</time>
      </trkpt>
      <trkpt lat="50.6559" lon="3.83471">
        <ele>28</ele>
        <time>2014-02-09T07:49:00Z</time>
      </trkpt>
      <trkpt lat="50.65594" lon="3.83448">
        <ele>28</ele>
        <time>2014-02-09T07:49:11Z</time>
      </trkpt>
      <trkpt lat="50.65604" lon="3.83421">
        <ele>28</ele>
        <time>2014-02-09T07:49:22Z</time>
      </trkpt>
      <trkpt lat="50.65619" lon="3.83398">
        <ele>27</ele>
        <time>2014-02-09T07:49:33Z</time>
      </trkpt>
      <trkpt lat="50.65632" lon="3.83377">
        <ele>27</ele>
        <time>2014-02-09T07:49:44Z</time>
      </trkpt>
      <trkpt lat="50.65643" lon="3.83358">
        <ele>26</ele>
        <time>2014-02-09T07:49:55Z</time>
      </trkpt>
      <trkpt lat="50.65653" lon="3.83335">
        <ele>26</ele>
        <time>2014-02-09T07:50:07Z</time>
      </trkpt>
      <trkpt lat="50.65659" lon="3.83315">
        <ele>26</ele>
        <time>2014-02-09T07:50:17Z</time>
      </trkpt>
      <trkpt lat="50.65667" lon="3.83293">
        <ele>25</ele>
        <time>2014-02-09T07:50:28Z</time>
      </trkpt>
      <trkpt lat="50.65674" lon="3.83271">
        <ele>26</ele>
        <time>2014-02-09T07:50:39Z</time>
      </trkpt>
      <trkpt lat="50.65681" lon="3.83249">
        <ele>26</ele>
        <time>2014-02-09T07:50:50Z</time>
      </trkpt>
      <trkpt lat="50.65688" lon="3.83227">
        <ele>26</ele>
        <time>2014-02-09T07:51:01Z</time>
      </trkpt>
      <trkpt lat="50.65695" lon="3.83204">
        <ele>26</ele>
        <time>2014-02-09T07:51:12Z</time>
      </trkpt>
      <trkpt lat="50.65701" lon="3.8318">
        <ele>26</ele>
        <time>2014-02-09T07:51:23Z</time>
      </trkpt>
      <trkpt lat="50.65692" lon="3.83161">
        <ele>26</ele>
        <time>2014-02-09T07:51:34Z</time>
      </trkpt>
      <trkpt lat="50.65676" lon="3.83154">
        <ele>26</ele>
        <time>2014-02-09T07:51:45Z</time>
      </trkpt>
      <trkpt lat="50.65661" lon="3.83145">
        <ele>27</ele>
        <time>2014-02-09T07:51:56Z</time>
      </trkpt>
      <trkpt lat="50.65646" lon="3.83134">
        <ele>27</ele>
        <time>2014-02-09T07:52:08Z</time>
      </trkpt>
      <trkpt lat="50.65635" lon="3.83119">
        <ele>28</ele>
        <time>2014-02-09T07:52:19Z</time>
      </trkpt>
      <trkpt lat="50.65637" lon="3.83095">
        <ele>28</ele>
        <time>2014-02-09T07:52:30Z</time>
      </trkpt>
      <trkpt lat="50.65641" lon="3.83075">
        <ele>28</ele>
        <time>2014-02-09T07:52:42Z</time>
      </trkpt>
      <trkpt lat="50.65645" lon="3.83049">
        <ele>28</ele>
        <time>2014-02-09T07:52:53Z</time>
      </trkpt>
      <trkpt lat="50.65646" lon="3.83027">
        <ele>28</ele>
        <time>2014-02-09T07:53:04Z</time>
      </trkpt>
      <trkpt lat="50.65652" lon="3.83004">
        <ele>28</ele>
        <time>2014-02-09T07:53:15Z</time>
      </trkpt>
      <trkpt lat="50.65657" lon="3.82974">
        <ele>28</ele>
        <time>2014-02-09T07:53:28Z</time>
      </trkpt>
      <trkpt lat="50.65661" lon="3.82958">
        <ele>28</ele>
        <time>2014-02-09T07:53:37Z</time>
      </trkpt>
      <trkpt lat="50.65663" lon="3.82937">
        <ele>28</ele>
        <time>2014-02-09T07:53:48Z</time>
      </trkpt>
      <trkpt lat="50.65667" lon="3.82917">
        <ele>28</ele>
        <time>2014-02-09T07:53:59Z</time>
      </trkpt>
      <trkpt lat="50.65674" lon="3.82892">
        <ele>27</ele>
        <time>2014-02-09T07:54:10Z</time>
      </trkpt>
      <trkpt lat="50.65681" lon="3.82866">
        <ele>27</ele>
        <time>2014-02-09T07:54:21Z</time>
      </trkpt>
      <trkpt lat="50.65686" lon="3.82845">
        <ele>27</ele>
        <time>2014-02-09T07:54:32Z</time>
      </trkpt>
      <trkpt lat="50.65694" lon="3.82819">
        <ele>28</ele>
        <time>2014-02-09T07:54:43Z</time>
      </trkpt>
      <trkpt lat="50.65701" lon="3.82793">
        <ele>28</ele>
        <time>2014-02-09T07:54:55Z</time>
      </trkpt>
      <trkpt lat="50.65706" lon="3.82776">
        <ele>28</ele>
        <time>2014-02-09T07:55:05Z</time>
      </trkpt>
      <trkpt lat="50.65702" lon="3.82758">
        <ele>28</ele>
        <time>2014-02-09T07:55:16Z</time>
      </trkpt>
      <trkpt lat="50.65689" lon="3.82736">
        <ele>28</ele>
        <time>2014-02-09T07:55:29Z</time>
      </trkpt>
      <trkpt lat="50.65679" lon="3.82723">
        <ele>28</ele>
        <time>2014-02-09T07:55:38Z</time>
      </trkpt>
      <trkpt lat="50.65675" lon="3.82703">
        <ele>28</ele>
        <time>2014-02-09T07:55:50Z</time>
      </trkpt>
      <trkpt lat="50.65682" lon="3.82676">
        <ele>28</ele>
        <time>2014-02-09T07:56:02Z</time>
      </trkpt>
      <trkpt lat="50.65692" lon="3.82656">
        <ele>28</ele>
        <time>2014-02-09T07:56:12Z</time>
      </trkpt>
      <trkpt lat="50.65706" lon="3.82637">
        <ele>28</ele>
        <time>2014-02-09T07:56:23Z</time>
      </trkpt>
      <trkpt lat="50.65718" lon="3.82617">
        <ele>28</ele>
        <time>2014-02-09T07:56:34Z</time>
      </trkpt>
      <trkpt lat="50.65727" lon="3.82599">
        <ele>28</ele>
        <time>2014-02-09T07:56:45Z</time>
      </trkpt>
      <trkpt lat="50.65735" lon="3.82582">
        <ele>28</ele>
        <time>2014-02-09T07:56:56Z</time>
      </trkpt>
      <trkpt lat="50.65746" lon="3.82565">
        <ele>28</ele>
        <time>2014-02-09T07:57:07Z</time>
      </trkpt>
      <trkpt lat="50.6575" lon="3.82552">
        <ele>28</ele>
        <time>2014-02-09T07:57:18Z</time>
      </trkpt>
      <trkpt lat="50.65759" lon="3.82534">
        <ele>27</ele>
        <time>2014-02-09T07:57:29Z</time>
      </trkpt>
      <trkpt lat="50.65761" lon="3.82519">
        <ele>27</ele>
        <time>2014-02-09T07:57:40Z</time>
      </trkpt>
      <trkpt lat="50.6576" lon="3.82508">
        <ele>28</ele>
        <time>2014-02-09T07:57:51Z</time>
      </trkpt>
      <trkpt lat="50.6576" lon="3.82496">
        <ele>28</ele>
        <time>2014-02-09T07:58:03Z</time>
      </trkpt>
      <trkpt lat="50.65761" lon="3.82477">
        <ele>28</ele>
        <time>2014-02-09T07:58:17Z</time>
      </trkpt>
      <trkpt lat="50.65764" lon="3.8246">
        <ele>28</ele>
        <time>2014-02-09T07:58:24Z</time>
      </trkpt>
      <trkpt lat="50.65766" lon="3.82435">
        <ele>28</ele>
        <time>2014-02-09T07:58:35Z</time>
      </trkpt>
      <trkpt lat="50.65768" lon="3.82413">
        <ele>29</ele>
        <time>2014-02-09T07:58:46Z</time>
      </trkpt>
      <trkpt lat="50.6577" lon="3.82393">
        <ele>29</ele>
        <time>2014-02-09T07:58:57Z</time>
      </trkpt>
      <trkpt lat="50.65772" lon="3.8237">
        <ele>29</ele>
        <time>2014-02-09T07:59:08Z</time>
      </trkpt>
      <trkpt lat="50.65775" lon="3.82336">
        <ele>29</ele>
        <time>2014-02-09T07:59:24Z</time>
      </trkpt>
      <trkpt lat="50.65775" lon="3.82328">
        <ele>29</ele>
        <time>2014-02-09T07:59:30Z</time>
      </trkpt>
      <trkpt lat="50.65776" lon="3.82299">
        <ele>29</ele>
        <time>2014-02-09T07:59:49Z</time>
      </trkpt>
      <trkpt lat="50.65775" lon="3.82296">
        <ele>29</ele>
        <time>2014-02-09T07:59:52Z</time>
      </trkpt>
      <trkpt lat="50.65777" lon="3.82274">
        <ele>29</ele>
        <time>2014-02-09T08:00:03Z</time>
      </trkpt>
      <trkpt lat="50.65783" lon="3.82219">
        <ele>30</ele>
        <time>2014-02-09T08:00:24Z</time>
      </trkpt>
      <trkpt lat="50.65783" lon="3.82214">
        <ele>30</ele>
        <time>2014-02-09T08:00:26Z</time>
      </trkpt>
      <trkpt lat="50.65788" lon="3.82168">
        <ele>30</ele>
        <time>2014-02-09T08:00:40Z</time>
      </trkpt>
      <trkpt lat="50.65791" lon="3.82145">
        <ele>31</ele>
        <time>2014-02-09T08:00:48Z</time>
      </trkpt>
      <trkpt lat="50.65796" lon="3.82096">
        <ele>31</ele>
        <time>2014-02-09T08:01:06Z</time>
      </trkpt>
      <trkpt lat="50.65797" lon="3.82088">
        <ele>31</ele>
        <time>2014-02-09T08:01:09Z</time>
      </trkpt>
      <trkpt lat="50.65799" lon="3.82059">
        <ele>32</ele>
        <time>2014-02-09T08:01:20Z</time>
      </trkpt>
      <trkpt lat="50.65803" lon="3.82031">
        <ele>32</ele>
        <time>2014-02-09T08:01:31Z</time>
      </trkpt>
      <trkpt lat="50.65807" lon="3.81999">
        <ele>33</ele>
        <time>2014-02-09T08:01:42Z</time>
      </trkpt>
      <trkpt lat="50.65809" lon="3.8197">
        <ele>33</ele>
        <time>2014-02-09T08:01:54Z</time>
      </trkpt>
      <trkpt lat="50.65811" lon="3.81945">
        <ele>33</ele>
        <time>2014-02-09T08:02:04Z</time>
      </trkpt>
      <trkpt lat="50.65814" lon="3.81918">
        <ele>33</ele>
        <time>2014-02-09T08:02:15Z</time>
      </trkpt>
      <trkpt lat="50.65815" lon="3.81897">
        <ele>33</ele>
        <time>2014-02-09T08:02:26Z</time>
      </trkpt>
      <trkpt lat="50.65818" lon="3.81877">
        <ele>33</ele>
        <time>2014-02-09T08:02:37Z</time>
      </trkpt>
      <trkpt lat="50.65822" lon="3.81841">
        <ele>33</ele>
        <time>2014-02-09T08:02:50Z</time>
      </trkpt>
      <trkpt lat="50.6583" lon="3.81833">
        <ele>33</ele>
        <time>2014-02-09T08:02:59Z</time>
      </trkpt>
      <trkpt lat="50.65845" lon="3.8183">
        <ele>33</ele>
        <time>2014-02-09T08:03:10Z</time>
      </trkpt>
      <trkpt lat="50.65854" lon="3.81812">
        <ele>33</ele>
        <time>2014-02-09T08:03:21Z</time>
      </trkpt>
      <trkpt lat="50.65865" lon="3.81792">
        <ele>33</ele>
        <time>2014-02-09T08:03:32Z</time>
      </trkpt>
      <trkpt lat="50.65874" lon="3.81772">
        <ele>33</ele>
        <time>2014-02-09T08:03:43Z</time>
      </trkpt>
      <trkpt lat="50.6588" lon="3.81766">
        <ele>33</ele>
        <time>2014-02-09T08:03:54Z</time>
      </trkpt>
      <trkpt lat="50.65888" lon="3.81768">
        <ele>32</ele>
        <time>2014-02-09T08:04:05Z</time>
      </trkpt>
      <trkpt lat="50.65893" lon="3.81772">
        <ele>32</ele>
        <time>2014-02-09T08:04:17Z</time>
      </trkpt>
      <trkpt lat="50.65904" lon="3.81771">
        <ele>32</ele>
        <time>2014-02-09T08:04:27Z</time>
      </trkpt>
      <trkpt lat="50.65918" lon="3.81781">
        <ele>31</ele>
        <time>2014-02-09T08:04:38Z</time>
      </trkpt>
      <trkpt lat="50.65941" lon="3.81799">
        <ele>31</ele>
        <time>2014-02-09T08:04:54Z</time>
      </trkpt>
      <trkpt lat="50.6595" lon="3.8181">
        <ele>31</ele>
        <time>2014-02-09T08:05:00Z</time>
      </trkpt>
      <trkpt lat="50.65967" lon="3.81836">
        <ele>30</ele>
        <time>2014-02-09T08:05:14Z</time>
      </trkpt>
      <trkpt lat="50.65976" lon="3.81848">
        <ele>30</ele>
        <time>2014-02-09T08:05:22Z</time>
      </trkpt>
      <trkpt lat="50.6599" lon="3.81859">
        <ele>29</ele>
        <time>2014-02-09T08:05:34Z</time>
      </trkpt>
      <trkpt lat="50.66002" lon="3.81875">
        <ele>28</ele>
        <time>2014-02-09T08:05:44Z</time>
      </trkpt>
      <trkpt lat="50.66016" lon="3.81896">
        <ele>28</ele>
        <time>2014-02-09T08:05:55Z</time>
      </trkpt>
      <trkpt lat="50.6603" lon="3.81907">
        <ele>28</ele>
        <time>2014-02-09T08:06:06Z</time>
      </trkpt>
      <trkpt lat="50.66044" lon="3.81932">
        <ele>28</ele>
        <time>2014-02-09T08:06:19Z</time>
      </trkpt>
      <trkpt lat="50.66056" lon="3.81951">
        <ele>27</ele>
        <time>2014-02-09T08:06:31Z</time>
      </trkpt>
      <trkpt lat="50.6607" lon="3.81962">
        <ele>27</ele>
        <time>2014-02-09T08:06:41Z</time>
      </trkpt>
      <trkpt lat="50.66079" lon="3.81979">
        <ele>27</ele>
        <time>2014-02-09T08:06:51Z</time>
      </trkpt>
      <trkpt lat="50.66093" lon="3.81987">
        <ele>26</ele>
        <time>2014-02-09T08:07:02Z</time>
      </trkpt>
      <trkpt lat="50.66109" lon="3.81994">
        <ele>26</ele>
        <time>2014-02-09T08:07:13Z</time>
      </trkpt>
      <trkpt lat="50.66127" lon="3.82007">
        <ele>27</ele>
        <time>2014-02-09T08:07:27Z</time>
      </trkpt>
      <trkpt lat="50.66137" lon="3.82013">
        <ele>27</ele>
        <time>2014-02-09T08:07:35Z</time>
      </trkpt>
      <trkpt lat="50.66148" lon="3.82015">
        <ele>27</ele>
        <time>2014-02-09T08:07:46Z</time>
      </trkpt>
      <trkpt lat="50.66168" lon="3.82033">
        <ele>27</ele>
        <time>2014-02-09T08:08:06Z</time>
      </trkpt>
      <trkpt lat="50.66172" lon="3.82041">
        <ele>27</ele>
        <time>2014-02-09T08:08:10Z</time>
      </trkpt>
      <trkpt lat="50.66176" lon="3.82057">
        <ele>27</ele>
        <time>2014-02-09T08:08:19Z</time>
      </trkpt>
      <trkpt lat="50.66191" lon="3.82058">
        <ele>27</ele>
        <time>2014-02-09T08:08:31Z</time>
      </trkpt>
      <trkpt lat="50.6621" lon="3.82035">
        <ele>27</ele>
        <time>2014-02-09T08:08:44Z</time>
      </trkpt>
      <trkpt lat="50.66217" lon="3.82019">
        <ele>27</ele>
        <time>2014-02-09T08:08:52Z</time>
      </trkpt>
      <trkpt lat="50.66225" lon="3.82">
        <ele>28</ele>
        <time>2014-02-09T08:09:07Z</time>
      </trkpt>
      <trkpt lat="50.66227" lon="3.81992">
        <ele>28</ele>
        <time>2014-02-09T08:09:14Z</time>
      </trkpt>
      <trkpt lat="50.66236" lon="3.81976">
        <ele>28</ele>
        <time>2014-02-09T08:09:26Z</time>
      </trkpt>
      <trkpt lat="50.66243" lon="3.81953">
        <ele>28</ele>
        <time>2014-02-09T08:09:37Z</time>
      </trkpt>
      <trkpt lat="50.66251" lon="3.81932">
        <ele>28</ele>
        <time>2014-02-09T08:09:47Z</time>
      </trkpt>
      <trkpt lat="50.66261" lon="3.81912">
        <ele>28</ele>
        <time>2014-02-09T08:09:58Z</time>
      </trkpt>
      <trkpt lat="50.66269" lon="3.81902">
        <ele>28</ele>
        <time>2014-02-09T08:10:09Z</time>
      </trkpt>
      <trkpt lat="50.66272" lon="3.81914">
        <ele>28</ele>
        <time>2014-02-09T08:10:21Z</time>
      </trkpt>
      <trkpt lat="50.66279" lon="3.8192">
        <ele>28</ele>
        <time>2014-02-09T08:10:31Z</time>
      </trkpt>
      <trkpt lat="50.66291" lon="3.81937">
        <ele>28</ele>
        <time>2014-02-09T08:10:42Z</time>
      </trkpt>
      <trkpt lat="50.66304" lon="3.8195">
        <ele>27</ele>
        <time>2014-02-09T08:10:53Z</time>
      </trkpt>
      <trkpt lat="50.6631" lon="3.8196">
        <ele>27</ele>
        <time>2014-02-09T08:11:04Z</time>
      </trkpt>
      <trkpt lat="50.66313" lon="3.8197">
        <ele>27</ele>
        <time>2014-02-09T08:11:16Z</time>
      </trkpt>
      <trkpt lat="50.66325" lon="3.81971">
        <ele>27</ele>
        <time>2014-02-09T08:11:26Z</time>
      </trkpt>
      <trkpt lat="50.66351" lon="3.81974">
        <ele>27</ele>
        <time>2014-02-09T08:11:45Z</time>
      </trkpt>
      <trkpt lat="50.66353" lon="3.81977">
        <ele>27</ele>
        <time>2014-02-09T08:11:48Z</time>
      </trkpt>
      <trkpt lat="50.66372" lon="3.81981">
        <ele>27</ele>
        <time>2014-02-09T08:12:00Z</time>
      </trkpt>
      <trkpt lat="50.66403" lon="3.81979">
        <ele>26</ele>
        <time>2014-02-09T08:12:19Z</time>
      </trkpt>
      <trkpt lat="50.66414" lon="3.81982">
        <ele>26</ele>
        <time>2014-02-09T08:12:27Z</time>
      </trkpt>
      <trkpt lat="50.6642" lon="3.81982">
        <ele>26</ele>
        <time>2014-02-09T08:12:33Z</time>
      </trkpt>
      <trkpt lat="50.66459" lon="3.8197">
        <ele>26</ele>
        <time>2014-02-09T08:12:52Z</time>
      </trkpt>
      <trkpt lat="50.66483" lon="3.81975">
        <ele>26</ele>
        <time>2014-02-09T08:13:04Z</time>
      </trkpt>
      <trkpt lat="50.66497" lon="3.81978">
        <ele>26</ele>
        <time>2014-02-09T08:13:12Z</time>
      </trkpt>
      <trkpt lat="50.66502" lon="3.81983">
        <ele>26</ele>
        <time>2014-02-09T08:13:16Z</time>
      </trkpt>
      <trkpt lat="50.66512" lon="3.81997">
        <ele>26</ele>
        <time>2014-02-09T08:13:27Z</time>
      </trkpt>
      <trkpt lat="50.66526" lon="3.8201">
        <ele>27</ele>
        <time>2014-02-09T08:13:39Z</time>
      </trkpt>
      <trkpt lat="50.66543" lon="3.82025">
        <ele>27</ele>
        <time>2014-02-09T08:13:49Z</time>
      </trkpt>
      <trkpt lat="50.66558" lon="3.82041">
        <ele>27</ele>
        <time>2014-02-09T08:14:00Z</time>
      </trkpt>
      <trkpt lat="50.66572" lon="3.82053">
        <ele>27</ele>
        <time>2014-02-09T08:14:11Z</time>
      </trkpt>
      <trkpt lat="50.66588" lon="3.82066">
        <ele>29</ele>
        <time>2014-02-09T08:14:24Z</time>
      </trkpt>
      <trkpt lat="50.66601" lon="3.82074">
        <ele>29</ele>
        <time>2014-02-09T08:14:36Z</time>
      </trkpt>
      <trkpt lat="50.66609" lon="3.82078">
        <ele>29</ele>
        <time>2014-02-09T08:14:44Z</time>
      </trkpt>
      <trkpt lat="50.66622" lon="3.82086">
        <ele>30</ele>
        <time>2014-02-09T08:14:55Z</time>
      </trkpt>
      <trkpt lat="50.66636" lon="3.82095">
        <ele>30</ele>
        <time>2014-02-09T08:15:06Z</time>
      </trkpt>
      <trkpt lat="50.66639" lon="3.82102">
        <ele>30</ele>
        <time>2014-02-09T08:15:17Z</time>
      </trkpt>
      <trkpt lat="50.66628" lon="3.82133">
        <ele>30</ele>
        <time>2014-02-09T08:15:32Z</time>
      </trkpt>
      <trkpt lat="50.6662" lon="3.82146">
        <ele>30</ele>
        <time>2014-02-09T08:15:39Z</time>
      </trkpt>
      <trkpt lat="50.6661" lon="3.82162">
        <ele>29</ele>
        <time>2014-02-09T08:15:50Z</time>
      </trkpt>
      <trkpt lat="50.66601" lon="3.82177">
        <ele>29</ele>
        <time>2014-02-09T08:16:01Z</time>
      </trkpt>
      <trkpt lat="50.66593" lon="3.82194">
        <ele>29</ele>
        <time>2014-02-09T08:16:13Z</time>
      </trkpt>
      <trkpt lat="50.66584" lon="3.82211">
        <ele>29</ele>
        <time>2014-02-09T08:16:23Z</time>
      </trkpt>
      <trkpt lat="50.66573" lon="3.8223">
        <ele>27</ele>
        <time>2014-02-09T08:16:34Z</time>
      </trkpt>
      <trkpt lat="50.66563" lon="3.82249">
        <ele>27</ele>
        <time>2014-02-09T08:16:45Z</time>
      </trkpt>
      <trkpt lat="50.66553" lon="3.82268">
        <ele>27</ele>
        <time>2014-02-09T08:16:56Z</time>
      </trkpt>
      <trkpt lat="50.66542" lon="3.82286">
        <ele>27</ele>
        <time>2014-02-09T08:17:07Z</time>
      </trkpt>
      <trkpt lat="50.66531" lon="3.82307">
        <ele>26</ele>
        <time>2014-02-09T08:17:19Z</time>
      </trkpt>
      <trkpt lat="50.66521" lon="3.82324">
        <ele>26</ele>
        <time>2014-02-09T08:17:29Z</time>
      </trkpt>
      <trkpt lat="50.6651" lon="3.82344">
        <ele>26</ele>
        <time>2014-02-09T08:17:40Z</time>
      </trkpt>
      <trkpt lat="50.66499" lon="3.82363">
        <ele>25</ele>
        <time>2014-02-09T08:17:51Z</time>
      </trkpt>
      <trkpt lat="50.6649" lon="3.82384">
        <ele>25</ele>
        <time>2014-02-09T08:18:03Z</time>
      </trkpt>
      <trkpt lat="50.66484" lon="3.82406">
        <ele>25</ele>
        <time>2014-02-09T08:18:14Z</time>
      </trkpt>
      <trkpt lat="50.66474" lon="3.82432">
        <ele>25</ele>
        <time>2014-02-09T08:18:27Z</time>
      </trkpt>
      <trkpt lat="50.66467" lon="3.82451">
        <ele>25</ele>
        <time>2014-02-09T08:18:36Z</time>
      </trkpt>
      <trkpt lat="50.6646" lon="3.82473">
        <ele>25</ele>
        <time>2014-02-09T08:18:46Z</time>
      </trkpt>
      <trkpt lat="50.66452" lon="3.825">
        <ele>25</ele>
        <time>2014-02-09T08:19:00Z</time>
      </trkpt>
      <trkpt lat="50.66447" lon="3.82518">
        <ele>26</ele>
        <time>2014-02-09T08:19:09Z</time>
      </trkpt>
      <trkpt lat="50.6644" lon="3.82539">
        <ele>26</ele>
        <time>2014-02-09T08:19:20Z</time>
      </trkpt>
      <trkpt lat="50.66433" lon="3.82562">
        <ele>26</ele>
        <time>2014-02-09T08:19:32Z</time>
      </trkpt>
      <trkpt lat="50.66427" lon="3.82582">
        <ele>27</ele>
        <time>2014-02-09T08:19:42Z</time>
      </trkpt>
      <trkpt lat="50.66421" lon="3.82609">
        <ele>27</ele>
        <time>2014-02-09T08:19:54Z</time>
      </trkpt>
      <trkpt lat="50.66414" lon="3.82626">
        <ele>27</ele>
        <time>2014-02-09T08:20:04Z</time>
      </trkpt>
      <trkpt lat="50.66408" lon="3.82648">
        <ele>27</ele>
        <time>2014-02-09T08:20:15Z</time>
      </trkpt>
      <trkpt lat="50.66403" lon="3.82673">
        <ele>28</ele>
        <time>2014-02-09T08:20:28Z</time>
      </trkpt>
      <trkpt lat="50.66395" lon="3.8269">
        <ele>27</ele>
        <time>2014-02-09T08:20:38Z</time>
      </trkpt>
      <trkpt lat="50.66386" lon="3.82717">
        <ele>27</ele>
        <time>2014-02-09T08:20:49Z</time>
      </trkpt>
      <trkpt lat="50.66381" lon="3.82737">
        <ele>27</ele>
        <time>2014-02-09T08:20:59Z</time>
      </trkpt>
      <trkpt lat="50.66373" lon="3.82764">
        <ele>27</ele>
        <time>2014-02-09T08:21:12Z</time>
      </trkpt>
      <trkpt lat="50.66367" lon="3.82786">
        <ele>27</ele>
        <time>2014-02-09T08:21:23Z</time>
      </trkpt>
      <trkpt lat="50.66359" lon="3.82805">
        <ele>27</ele>
        <time>2014-02-09T08:21:33Z</time>
      </trkpt>
      <trkpt lat="50.66341" lon="3.82792">
        <ele>26</ele>
        <time>2014-02-09T08:21:49Z</time>
      </trkpt>
      <trkpt lat="50.66334" lon="3.8278">
        <ele>26</ele>
        <time>2014-02-09T08:21:55Z</time>
      </trkpt>
      <trkpt lat="50.66322" lon="3.82764">
        <ele>26</ele>
        <time>2014-02-09T08:22:05Z</time>
      </trkpt>
      <trkpt lat="50.66302" lon="3.82738">
        <ele>26</ele>
        <time>2014-02-09T08:22:24Z</time>
      </trkpt>
      <trkpt lat="50.66297" lon="3.82732">
        <ele>26</ele>
        <time>2014-02-09T08:22:28Z</time>
      </trkpt>
      <trkpt lat="50.66285" lon="3.82715">
        <ele>26</ele>
        <time>2014-02-09T08:22:39Z</time>
      </trkpt>
      <trkpt lat="50.66274" lon="3.82703">
        <ele>27</ele>
        <time>2014-02-09T08:22:49Z</time>
      </trkpt>
      <trkpt lat="50.66263" lon="3.82688">
        <ele>27</ele>
        <time>2014-02-09T08:23:01Z</time>
      </trkpt>
      <trkpt lat="50.66247" lon="3.82677">
        <ele>26</ele>
        <time>2014-02-09T08:23:11Z</time>
      </trkpt>
      <trkpt lat="50.66243" lon="3.827">
        <ele>26</ele>
        <time>2014-02-09T08:23:22Z</time>
      </trkpt>
      <trkpt lat="50.66246" lon="3.82728">
        <ele>26</ele>
        <time>2014-02-09T08:23:34Z</time>
      </trkpt>
      <trkpt lat="50.66245" lon="3.82756">
        <ele>26</ele>
        <time>2014-02-09T08:23:45Z</time>
      </trkpt>
      <trkpt lat="50.6624" lon="3.8279">
        <ele>26</ele>
        <time>2014-02-09T08:23:58Z</time>
      </trkpt>
      <trkpt lat="50.66233" lon="3.82821">
        <ele>25</ele>
        <time>2014-02-09T08:24:12Z</time>
      </trkpt>
      <trkpt lat="50.66229" lon="3.82833">
        <ele>26</ele>
        <time>2014-02-09T08:24:19Z</time>
      </trkpt>
      <trkpt lat="50.66222" lon="3.82857">
        <ele>26</ele>
        <time>2014-02-09T08:24:30Z</time>
      </trkpt>
      <trkpt lat="50.66215" lon="3.82874">
        <ele>26</ele>
        <time>2014-02-09T08:24:41Z</time>
      </trkpt>
      <trkpt lat="50.66205" lon="3.82904">
        <ele>26</ele>
        <time>2014-02-09T08:24:56Z</time>
      </trkpt>
      <trkpt lat="50.66192" lon="3.82934">
        <ele>27</ele>
        <time>2014-02-09T08:25:09Z</time>
      </trkpt>
      <trkpt lat="50.6619" lon="3.82942">
        <ele>27</ele>
        <time>2014-02-09T08:25:14Z</time>
      </trkpt>
      <trkpt lat="50.66184" lon="3.82967">
        <ele>27</ele>
        <time>2014-02-09T08:25:25Z</time>
      </trkpt>
      <trkpt lat="50.66177" lon="3.8299">
        <ele>28</ele>
        <time>2014-02-09T08:25:36Z</time>
      </trkpt>
      <trkpt lat="50.66171" lon="3.83015">
        <ele>28</ele>
        <time>2014-02-09T08:25:47Z</time>
      </trkpt>
      <trkpt lat="50.66166" lon="3.83041">
        <ele>27</ele>
        <time>2014-02-09T08:25:58Z</time>
      </trkpt>
      <trkpt lat="50.6616" lon="3.83065">
        <ele>27</ele>
        <time>2014-02-09T08:26:09Z</time>
      </trkpt>
      <trkpt lat="50.66154" lon="3.83092">
        <ele>28</ele>
        <time>2014-02-09T08:26:21Z</time>
      </trkpt>
      <trkpt lat="50.66147" lon="3.83125">
        <ele>28</ele>
        <time>2014-02-09T08:26:35Z</time>
      </trkpt>
      <trkpt lat="50.66152" lon="3.83144">
        <ele>28</ele>
        <time>2014-02-09T08:26:43Z</time>
      </trkpt>
      <trkpt lat="50.66164" lon="3.83158">
        <ele>29</ele>
        <time>2014-02-09T08:26:53Z</time>
      </trkpt>
      <trkpt lat="50.66178" lon="3.83168">
        <ele>29</ele>
        <time>2014-02-09T08:27:04Z</time>
      </trkpt>
      <trkpt lat="50.66194" lon="3.8318">
        <ele>29</ele>
        <time>2014-02-09T08:27:15Z</time>
      </trkpt>
      <trkpt lat="50.66211" lon="3.83191">
        <ele>29</ele>
        <time>2014-02-09T08:27:27Z</time>
      </trkpt>
      <trkpt lat="50.66224" lon="3.83197">
        <ele>29</ele>
        <time>2014-02-09T08:27:37Z</time>
      </trkpt>
      <trkpt lat="50.66237" lon="3.83214">
        <ele>29</ele>
        <time>2014-02-09T08:27:48Z</time>
      </trkpt>
      <trkpt lat="50.66256" lon="3.83232">
        <ele>29</ele>
        <time>2014-02-09T08:28:00Z</time>
      </trkpt>
      <trkpt lat="50.66269" lon="3.83245">
        <ele>29</ele>
        <time>2014-02-09T08:28:10Z</time>
      </trkpt>
      <trkpt lat="50.66286" lon="3.8326">
        <ele>30</ele>
        <time>2014-02-09T08:28:21Z</time>
      </trkpt>
      <trkpt lat="50.66299" lon="3.83268">
        <ele>30</ele>
        <time>2014-02-09T08:28:32Z</time>
      </trkpt>
      <trkpt lat="50.66314" lon="3.83287">
        <ele>30</ele>
        <time>2014-02-09T08:28:43Z</time>
      </trkpt>
      <trkpt lat="50.66328" lon="3.833">
        <ele>30</ele>
        <time>2014-02-09T08:28:54Z</time>
      </trkpt>
      <trkpt lat="50.6634" lon="3.8331">
        <ele>31</ele>
        <time>2014-02-09T08:29:05Z</time>
      </trkpt>
      <trkpt lat="50.66356" lon="3.83328">
        <ele>31</ele>
        <time>2014-02-09T08:29:16Z</time>
      </trkpt>
      <trkpt lat="50.66367" lon="3.83348">
        <ele>32</ele>
        <time>2014-02-09T08:29:27Z</time>
      </trkpt>
      <trkpt lat="50.66381" lon="3.83364">
        <ele>32</ele>
        <time>2014-02-09T08:29:38Z</time>
      </trkpt>
      <trkpt lat="50.66393" lon="3.83378">
        <ele>32</ele>
        <time>2014-02-09T08:29:50Z</time>
      </trkpt>
      <trkpt lat="50.66408" lon="3.83391">
        <ele>33</ele>
        <time>2014-02-09T08:30:00Z</time>
      </trkpt>
      <trkpt lat="50.66423" lon="3.83406">
        <ele>34</ele>
        <time>2014-02-09T08:30:11Z</time>
      </trkpt>
      <trkpt lat="50.66438" lon="3.8342">
        <ele>34</ele>
        <time>2014-02-09T08:30:22Z</time>
      </trkpt>
      <trkpt lat="50.66447" lon="3.83429">
        <ele>34</ele>
        <time>2014-02-09T08:30:33Z</time>
      </trkpt>
      <trkpt lat="50.66462" lon="3.83445">
        <ele>35</ele>
        <time>2014-02-09T08:30:44Z</time>
      </trkpt>
      <trkpt lat="50.66474" lon="3.83453">
        <ele>35</ele>
        <time>2014-02-09T08:30:55Z</time>
      </trkpt>
      <trkpt lat="50.66486" lon="3.83458">
        <ele>35</ele>
        <time>2014-02-09T08:31:06Z</time>
      </trkpt>
      <trkpt lat="50.6649" lon="3.83487">
        <ele>35</ele>
        <time>2014-02-09T08:31:17Z</time>
      </trkpt>
      <trkpt lat="50.66484" lon="3.83506">
        <ele>35</ele>
        <time>2014-02-09T08:31:28Z</time>
      </trkpt>
      <trkpt lat="50.66479" lon="3.83524">
        <ele>35</ele>
        <time>2014-02-09T08:31:39Z</time>
      </trkpt>
      <trkpt lat="50.66472" lon="3.83553">
        <ele>35</ele>
        <time>2014-02-09T08:31:50Z</time>
      </trkpt>
      <trkpt lat="50.66466" lon="3.83574">
        <ele>35</ele>
        <time>2014-02-09T08:32:01Z</time>
      </trkpt>
      <trkpt lat="50.6646" lon="3.83598">
        <ele>35</ele>
        <time>2014-02-09T08:32:12Z</time>
      </trkpt>
      <trkpt lat="50.66457" lon="3.83616">
        <ele>35</ele>
        <time>2014-02-09T08:32:23Z</time>
      </trkpt>
      <trkpt lat="50.6645" lon="3.83636">
        <ele>35</ele>
        <time>2014-02-09T08:32:34Z</time>
      </trkpt>
      <trkpt lat="50.66445" lon="3.83658">
        <ele>35</ele>
        <time>2014-02-09T08:32:45Z</time>
      </trkpt>
      <trkpt lat="50.66434" lon="3.83683">
        <ele>35</ele>
        <time>2014-02-09T08:32:56Z</time>
      </trkpt>
      <trkpt lat="50.66417" lon="3.83699">
        <ele>35</ele>
        <time>2014-02-09T08:33:07Z</time>
      </trkpt>
      <trkpt lat="50.66405" lon="3.83714">
        <ele>34</ele>
        <time>2014-02-09T08:33:18Z</time>
      </trkpt>
      <trkpt lat="50.66387" lon="3.83723">
        <ele>34</ele>
        <time>2014-02-09T08:33:29Z</time>
      </trkpt>
      <trkpt lat="50.66368" lon="3.8373">
        <ele>34</ele>
        <time>2014-02-09T08:33:40Z</time>
      </trkpt>
      <trkpt lat="50.66352" lon="3.8374">
        <ele>34</ele>
        <time>2014-02-09T08:33:51Z</time>
      </trkpt>
      <trkpt lat="50.66336" lon="3.8375">
        <ele>34</ele>
        <time>2014-02-09T08:34:02Z</time>
      </trkpt>
      <trkpt lat="50.66327" lon="3.83774">
        <ele>35</ele>
        <time>2014-02-09T08:34:14Z</time>
      </trkpt>
      <trkpt lat="50.66318" lon="3.83797">
        <ele>36</ele>
        <time>2014-02-09T08:34:24Z</time>
      </trkpt>
      <trkpt lat="50.6631" lon="3.83815">
        <ele>36</ele>
        <time>2014-02-09T08:34:35Z</time>
      </trkpt>
      <trkpt lat="50.66308" lon="3.83822">
        <ele>36</ele>
        <time>2014-02-09T08:34:46Z</time>
      </trkpt>
      <trkpt lat="50.66298" lon="3.83848">
        <ele>37</ele>
        <time>2014-02-09T08:34:57Z</time>
      </trkpt>
      <trkpt lat="50.66288" lon="3.83866">
        <ele>37</ele>
        <time>2014-02-09T08:35:08Z</time>
      </trkpt>
      <trkpt lat="50.66279" lon="3.83885">
        <ele>38</ele>
        <time>2014-02-09T08:35:19Z</time>
      </trkpt>
      <trkpt lat="50.66268" lon="3.83914">
        <ele>38</ele>
        <time>2014-02-09T08:35:30Z</time>
      </trkpt>
      <trkpt lat="50.66259" lon="3.83939">
        <ele>39</ele>
        <time>2014-02-09T08:35:41Z</time>
      </trkpt>
      <trkpt lat="50.6625" lon="3.83961">
        <ele>39</ele>
        <time>2014-02-09T08:35:52Z</time>
      </trkpt>
      <trkpt lat="50.66238" lon="3.83986">
        <ele>40</ele>
        <time>2014-02-09T08:36:03Z</time>
      </trkpt>
      <trkpt lat="50.66229" lon="3.84008">
        <ele>42</ele>
        <time>2014-02-09T08:36:14Z</time>
      </trkpt>
      <trkpt lat="50.6622" lon="3.84029">
        <ele>42</ele>
        <time>2014-02-09T08:36:25Z</time>
      </trkpt>
      <trkpt lat="50.66209" lon="3.8405">
        <ele>43</ele>
        <time>2014-02-09T08:36:36Z</time>
      </trkpt>
      <trkpt lat="50.66203" lon="3.84068">
        <ele>43</ele>
        <time>2014-02-09T08:36:47Z</time>
      </trkpt>
      <trkpt lat="50.66194" lon="3.84087">
        <ele>46</ele>
        <time>2014-02-09T08:36:58Z</time>
      </trkpt>
      <trkpt lat="50.66184" lon="3.84108">
        <ele>46</ele>
        <time>2014-02-09T08:37:09Z</time>
      </trkpt>
      <trkpt lat="50.66171" lon="3.84112">
        <ele>46</ele>
        <time>2014-02-09T08:37:20Z</time>
      </trkpt>
      <trkpt lat="50.66152" lon="3.84106">
        <ele>45</ele>
        <time>2014-02-09T08:37:31Z</time>
      </trkpt>
      <trkpt lat="50.66135" lon="3.84103">
        <ele>45</ele>
        <time>2014-02-09T08:37:42Z</time>
      </trkpt>
      <trkpt lat="50.66117" lon="3.84099">
        <ele>45</ele>
        <time>2014-02-09T08:37:53Z</time>
      </trkpt>
      <trkpt lat="50.66099" lon="3.84096">
        <ele>44</ele>
        <time>2014-02-09T08:38:04Z</time>
      </trkpt>
      <trkpt lat="50.66082" lon="3.84094">
        <ele>43</ele>
        <time>2014-02-09T08:38:16Z</time>
      </trkpt>
      <trkpt lat="50.66068" lon="3.84092">
        <ele>43</ele>
        <time>2014-02-09T08:38:26Z</time>
      </trkpt>
      <trkpt lat="50.6605" lon="3.84088">
        <ele>42</ele>
        <time>2014-02-09T08:38:37Z</time>
      </trkpt>
      <trkpt lat="50.66029" lon="3.84083">
        <ele>42</ele>
        <time>2014-02-09T08:38:48Z</time>
      </trkpt>
      <trkpt lat="50.66012" lon="3.84079">
        <ele>40</ele>
        <time>2014-02-09T08:38:59Z</time>
      </trkpt>
      <trkpt lat="50.65995" lon="3.84075">
        <ele>40</ele>
        <time>2014-02-09T08:39:10Z</time>
      </trkpt>
      <trkpt lat="50.65979" lon="3.84073">
        <ele>40</ele>
        <time>2014-02-09T08:39:21Z</time>
      </trkpt>
      <trkpt lat="50.6596" lon="3.84071">
        <ele>39</ele>
        <time>2014-02-09T08:39:32Z</time>
      </trkpt>
      <trkpt lat="50.65943" lon="3.84069">
        <ele>39</ele>
        <time>2014-02-09T08:39:43Z</time>
      </trkpt>
      <trkpt lat="50.6593" lon="3.84063">
        <ele>39</ele>
        <time>2014-02-09T08:39:54Z</time>
      </trkpt>
      <trkpt lat="50.65914" lon="3.84055">
        <ele>39</ele>
        <time>2014-02-09T08:40:08Z</time>
      </trkpt>
      <trkpt lat="50.65906" lon="3.84072">
        <ele>39</ele>
        <time>2014-02-09T08:40:16Z</time>
      </trkpt>
      <trkpt lat="50.65896" lon="3.84092">
        <ele>39</ele>
        <time>2014-02-09T08:40:27Z</time>
      </trkpt>
      <trkpt lat="50.65888" lon="3.84113">
        <ele>40</ele>
        <time>2014-02-09T08:40:38Z</time>
      </trkpt>
      <trkpt lat="50.6588" lon="3.8413">
        <ele>40</ele>
        <time>2014-02-09T08:40:49Z</time>
      </trkpt>
      <trkpt lat="50.65872" lon="3.84149">
        <ele>40</ele>
        <time>2014-02-09T08:41:00Z</time>
      </trkpt>
      <trkpt lat="50.65863" lon="3.8417">
        <ele>40</ele>
        <time>2014-02-09T08:41:11Z</time>
      </trkpt>
      <trkpt lat="50.65852" lon="3.84191">
        <ele>40</ele>
        <time>2014-02-09T08:41:22Z</time>
      </trkpt>
      <trkpt lat="50.65839" lon="3.8422">
        <ele>39</ele>
        <time>2014-02-09T08:41:34Z</time>
      </trkpt>
      <trkpt lat="50.65829" lon="3.84242">
        <ele>37</ele>
        <time>2014-02-09T08:41:44Z</time>
      </trkpt>
      <trkpt lat="50.65817" lon="3.84262">
        <ele>36</ele>
        <time>2014-02-09T08:41:55Z</time>
      </trkpt>
      <trkpt lat="50.65804" lon="3.84291">
        <ele>34</ele>
        <time>2014-02-09T08:42:10Z</time>
      </trkpt>
      <trkpt lat="50.65805" lon="3.84314">
        <ele>34</ele>
        <time>2014-02-09T08:42:18Z</time>
      </trkpt>
      <trkpt lat="50.65819" lon="3.84327">
        <ele>34</ele>
        <time>2014-02-09T08:42:28Z</time>
      </trkpt>
      <trkpt lat="50.65833" lon="3.84337">
        <ele>35</ele>
        <time>2014-02-09T08:42:39Z</time>
      </trkpt>
      <trkpt lat="50.65848" lon="3.84354">
        <ele>36</ele>
        <time>2014-02-09T08:42:50Z</time>
      </trkpt>
      <trkpt lat="50.65864" lon="3.84374">
        <ele>36</ele>
        <time>2014-02-09T08:43:01Z</time>
      </trkpt>
      <trkpt lat="50.65879" lon="3.84391">
        <ele>36</ele>
        <time>2014-02-09T08:43:12Z</time>
      </trkpt>
      <trkpt lat="50.65894" lon="3.84407">
        <ele>36</ele>
        <time>2014-02-09T08:43:24Z</time>
      </trkpt>
      <trkpt lat="50.65907" lon="3.84421">
        <ele>36</ele>
        <time>2014-02-09T08:43:35Z</time>
      </trkpt>
      <trkpt lat="50.65919" lon="3.8443">
        <ele>37</ele>
        <time>2014-02-09T08:43:46Z</time>
      </trkpt>
      <trkpt lat="50.65931" lon="3.84443">
        <ele>38</ele>
        <time>2014-02-09T08:43:57Z</time>
      </trkpt>
      <trkpt lat="50.65946" lon="3.84463">
        <ele>38</ele>
        <time>2014-02-09T08:44:08Z</time>
      </trkpt>
      <trkpt lat="50.65962" lon="3.84482">
        <ele>38</ele>
        <time>2014-02-09T08:44:19Z</time>
      </trkpt>
      <trkpt lat="50.65974" lon="3.84505">
        <ele>37</ele>
        <time>2014-02-09T08:44:30Z</time>
      </trkpt>
      <trkpt lat="50.65987" lon="3.84523">
        <ele>37</ele>
        <time>2014-02-09T08:44:41Z</time>
      </trkpt>
      <trkpt lat="50.66" lon="3.84543">
        <ele>40</ele>
        <time>2014-02-09T08:44:52Z</time>
      </trkpt>
      <trkpt lat="50.66014" lon="3.84561">
        <ele>39</ele>
        <time>2014-02-09T08:45:03Z</time>
      </trkpt>
      <trkpt lat="50.66028" lon="3.84572">
        <ele>40</ele>
        <time>2014-02-09T08:45:15Z</time>
      </trkpt>
      <trkpt lat="50.66042" lon="3.84573">
        <ele>40</ele>
        <time>2014-02-09T08:45:25Z</time>
      </trkpt>
      <trkpt lat="50.66058" lon="3.84573">
        <ele>40</ele>
        <time>2014-02-09T08:45:36Z</time>
      </trkpt>
      <trkpt lat="50.66074" lon="3.84572">
        <ele>41</ele>
        <time>2014-02-09T08:45:47Z</time>
      </trkpt>
      <trkpt lat="50.6609" lon="3.84572">
        <ele>42</ele>
        <time>2014-02-09T08:45:58Z</time>
      </trkpt>
      <trkpt lat="50.66107" lon="3.84576">
        <ele>43</ele>
        <time>2014-02-09T08:46:09Z</time>
      </trkpt>
      <trkpt lat="50.66121" lon="3.8458">
        <ele>43</ele>
        <time>2014-02-09T08:46:20Z</time>
      </trkpt>
      <trkpt lat="50.66135" lon="3.84581">
        <ele>43</ele>
        <time>2014-02-09T08:46:31Z</time>
      </trkpt>
      <trkpt lat="50.66153" lon="3.84596">
        <ele>42</ele>
        <time>2014-02-09T08:46:42Z</time>
      </trkpt>
      <trkpt lat="50.66171" lon="3.84604">
        <ele>42</ele>
        <time>2014-02-09T08:46:54Z</time>
      </trkpt>
      <trkpt lat="50.66185" lon="3.8461">
        <ele>42</ele>
        <time>2014-02-09T08:47:04Z</time>
      </trkpt>
      <trkpt lat="50.662" lon="3.84617">
        <ele>42</ele>
        <time>2014-02-09T08:47:16Z</time>
      </trkpt>
      <trkpt lat="50.66216" lon="3.84624">
        <ele>42</ele>
        <time>2014-02-09T08:47:26Z</time>
      </trkpt>
      <trkpt lat="50.66233" lon="3.84635">
        <ele>42</ele>
        <time>2014-02-09T08:47:37Z</time>
      </trkpt>
      <trkpt lat="50.6625" lon="3.84643">
        <ele>42</ele>
        <time>2014-02-09T08:47:49Z</time>
      </trkpt>
      <trkpt lat="50.66264" lon="3.8465">
        <ele>42</ele>
        <time>2014-02-09T08:47:59Z</time>
      </trkpt>
      <trkpt lat="50.66279" lon="3.84655">
        <ele>42</ele>
        <time>2014-02-09T08:48:10Z</time>
      </trkpt>
      <trkpt lat="50.66293" lon="3.84668">
        <ele>41</ele>
        <time>2014-02-09T08:48:21Z</time>
      </trkpt>
      <trkpt lat="50.66307" lon="3.8469">
        <ele>40</ele>
        <time>2014-02-09T08:48:32Z</time>
      </trkpt>
      <trkpt lat="50.66317" lon="3.8471">
        <ele>40</ele>
        <time>2014-02-09T08:48:43Z</time>
      </trkpt>
      <trkpt lat="50.66328" lon="3.84735">
        <ele>40</ele>
        <time>2014-02-09T08:48:54Z</time>
      </trkpt>
      <trkpt lat="50.66338" lon="3.84757">
        <ele>40</ele>
        <time>2014-02-09T08:49:05Z</time>
      </trkpt>
      <trkpt lat="50.66348" lon="3.84778">
        <ele>40</ele>
        <time>2014-02-09T08:49:16Z</time>
      </trkpt>
      <trkpt lat="50.6636" lon="3.84802">
        <ele>40</ele>
        <time>2014-02-09T08:49:27Z</time>
      </trkpt>
      <trkpt lat="50.6637" lon="3.84823">
        <ele>39</ele>
        <time>2014-02-09T08:49:38Z</time>
      </trkpt>
      <trkpt lat="50.66379" lon="3.84844">
        <ele>39</ele>
        <time>2014-02-09T08:49:49Z</time>
      </trkpt>
      <trkpt lat="50.66388" lon="3.84862">
        <ele>39</ele>
        <time>2014-02-09T08:50:01Z</time>
      </trkpt>
      <trkpt lat="50.66397" lon="3.8488">
        <ele>39</ele>
        <time>2014-02-09T08:50:11Z</time>
      </trkpt>
      <trkpt lat="50.66409" lon="3.8491">
        <ele>39</ele>
        <time>2014-02-09T08:50:22Z</time>
      </trkpt>
      <trkpt lat="50.66417" lon="3.84938">
        <ele>39</ele>
        <time>2014-02-09T08:50:33Z</time>
      </trkpt>
      <trkpt lat="50.66427" lon="3.84961">
        <ele>39</ele>
        <time>2014-02-09T08:50:44Z</time>
      </trkpt>
      <trkpt lat="50.66436" lon="3.84987">
        <ele>39</ele>
        <time>2014-02-09T08:50:55Z</time>
      </trkpt>
      <trkpt lat="50.66446" lon="3.85012">
        <ele>39</ele>
        <time>2014-02-09T08:51:07Z</time>
      </trkpt>
      <trkpt lat="50.66456" lon="3.85031">
        <ele>39</ele>
        <time>2014-02-09T08:51:17Z</time>
      </trkpt>
      <trkpt lat="50.66465" lon="3.85055">
        <ele>39</ele>
        <time>2014-02-09T08:51:29Z</time>
      </trkpt>
      <trkpt lat="50.66476" lon="3.85076">
        <ele>39</ele>
        <time>2014-02-09T08:51:41Z</time>
      </trkpt>
      <trkpt lat="50.66483" lon="3.85094">
        <ele>39</ele>
        <time>2014-02-09T08:51:50Z</time>
      </trkpt>
      <trkpt lat="50.66494" lon="3.85123">
        <ele>39</ele>
        <time>2014-02-09T08:52:03Z</time>
      </trkpt>
      <trkpt lat="50.665" lon="3.85145">
        <ele>40</ele>
        <time>2014-02-09T08:52:13Z</time>
      </trkpt>
      <trkpt lat="50.66488" lon="3.85161">
        <ele>40</ele>
        <time>2014-02-09T08:52:24Z</time>
      </trkpt>
      <trkpt lat="50.6647" lon="3.85156">
        <ele>39</ele>
        <time>2014-02-09T08:52:36Z</time>
      </trkpt>
      <trkpt lat="50.66455" lon="3.85154">
        <ele>39</ele>
        <time>2014-02-09T08:52:45Z</time>
      </trkpt>
      <trkpt lat="50.66441" lon="3.85163">
        <ele>39</ele>
        <time>2014-02-09T08:52:56Z</time>
      </trkpt>
      <trkpt lat="50.66435" lon="3.85189">
        <ele>39</ele>
        <time>2014-02-09T08:53:07Z</time>
      </trkpt>
      <trkpt lat="50.66432" lon="3.85218">
        <ele>39</ele>
        <time>2014-02-09T08:53:19Z</time>
      </trkpt>
      <trkpt lat="50.66428" lon="3.85236">
        <ele>39</ele>
        <time>2014-02-09T08:53:29Z</time>
      </trkpt>
      <trkpt lat="50.66423" lon="3.8526">
        <ele>39</ele>
        <time>2014-02-09T08:53:40Z</time>
      </trkpt>
      <trkpt lat="50.66413" lon="3.85293">
        <ele>39</ele>
        <time>2014-02-09T08:53:55Z</time>
      </trkpt>
      <trkpt lat="50.66406" lon="3.85308">
        <ele>39</ele>
        <time>2014-02-09T08:54:02Z</time>
      </trkpt>
      <trkpt lat="50.66393" lon="3.85339">
        <ele>39</ele>
        <time>2014-02-09T08:54:14Z</time>
      </trkpt>
      <trkpt lat="50.66385" lon="3.85359">
        <ele>39</ele>
        <time>2014-02-09T08:54:24Z</time>
      </trkpt>
      <trkpt lat="50.66377" lon="3.85383">
        <ele>39</ele>
        <time>2014-02-09T08:54:36Z</time>
      </trkpt>
      <trkpt lat="50.66369" lon="3.85402">
        <ele>40</ele>
        <time>2014-02-09T08:54:46Z</time>
      </trkpt>
      <trkpt lat="50.66354" lon="3.85406">
        <ele>40</ele>
        <time>2014-02-09T08:54:57Z</time>
      </trkpt>
      <trkpt lat="50.66341" lon="3.8541">
        <ele>40</ele>
        <time>2014-02-09T08:55:08Z</time>
      </trkpt>
      <trkpt lat="50.66321" lon="3.85409">
        <ele>39</ele>
        <time>2014-02-09T08:55:19Z</time>
      </trkpt>
      <trkpt lat="50.66308" lon="3.85411">
        <ele>39</ele>
        <time>2014-02-09T08:55:30Z</time>
      </trkpt>
      <trkpt lat="50.66289" lon="3.8541">
        <ele>39</ele>
        <time>2014-02-09T08:55:41Z</time>
      </trkpt>
      <trkpt lat="50.66272" lon="3.85411">
        <ele>38</ele>
        <time>2014-02-09T08:55:52Z</time>
      </trkpt>
      <trkpt lat="50.66255" lon="3.85409">
        <ele>38</ele>
        <time>2014-02-09T08:56:03Z</time>
      </trkpt>
      <trkpt lat="50.66238" lon="3.85406">
        <ele>38</ele>
        <time>2014-02-09T08:56:14Z</time>
      </trkpt>
      <trkpt lat="50.66221" lon="3.85406">
        <ele>37</ele>
        <time>2014-02-09T08:56:25Z</time>
      </trkpt>
      <trkpt lat="50.66204" lon="3.85407">
        <ele>37</ele>
        <time>2014-02-09T08:56:36Z</time>
      </trkpt>
      <trkpt lat="50.6619" lon="3.85405">
        <ele>37</ele>
        <time>2014-02-09T08:56:47Z</time>
      </trkpt>
      <trkpt lat="50.66155" lon="3.85399">
        <ele>36</ele>
        <time>2014-02-09T08:57:05Z</time>
      </trkpt>
      <trkpt lat="50.66147" lon="3.85398">
        <ele>36</ele>
        <time>2014-02-09T08:57:09Z</time>
      </trkpt>
      <trkpt lat="50.66129" lon="3.85395">
        <ele>36</ele>
        <time>2014-02-09T08:57:20Z</time>
      </trkpt>
      <trkpt lat="50.66111" lon="3.85392">
        <ele>35</ele>
        <time>2014-02-09T08:57:31Z</time>
      </trkpt>
      <trkpt lat="50.66094" lon="3.8539">
        <ele>35</ele>
        <time>2014-02-09T08:57:42Z</time>
      </trkpt>
      <trkpt lat="50.66066" lon="3.85388">
        <ele>34</ele>
        <time>2014-02-09T08:58:02Z</time>
      </trkpt>
      <trkpt lat="50.66063" lon="3.85387">
        <ele>34</ele>
        <time>2014-02-09T08:58:04Z</time>
      </trkpt>
      <trkpt lat="50.66045" lon="3.85381">
        <ele>34</ele>
        <time>2014-02-09T08:58:15Z</time>
      </trkpt>
      <trkpt lat="50.6603" lon="3.85379">
        <ele>34</ele>
        <time>2014-02-09T08:58:26Z</time>
      </trkpt>
      <trkpt lat="50.66013" lon="3.85372">
        <ele>34</ele>
        <time>2014-02-09T08:58:37Z</time>
      </trkpt>
      <trkpt lat="50.65997" lon="3.85366">
        <ele>33</ele>
        <time>2014-02-09T08:58:48Z</time>
      </trkpt>
      <trkpt lat="50.65981" lon="3.85363">
        <ele>33</ele>
        <time>2014-02-09T08:58:59Z</time>
      </trkpt>
      <trkpt lat="50.65964" lon="3.85357">
        <ele>32</ele>
        <time>2014-02-09T08:59:10Z</time>
      </trkpt>
      <trkpt lat="50.65946" lon="3.85349">
        <ele>32</ele>
        <time>2014-02-09T08:59:21Z</time>
      </trkpt>
      <trkpt lat="50.65929" lon="3.85342">
        <ele>32</ele>
        <time>2014-02-09T08:59:32Z</time>
      </trkpt>
      <trkpt lat="50.65917" lon="3.85353">
        <ele>32</ele>
        <time>2014-02-09T08:59:44Z</time>
      </trkpt>
      <trkpt lat="50.6591" lon="3.85374">
        <ele>30</ele>
        <time>2014-02-09T08:59:55Z</time>
      </trkpt>
      <trkpt lat="50.65904" lon="3.85395">
        <ele>30</ele>
        <time>2014-02-09T09:00:06Z</time>
      </trkpt>
      <trkpt lat="50.65896" lon="3.85425">
        <ele>31</ele>
        <time>2014-02-09T09:00:18Z</time>
      </trkpt>
      <trkpt lat="50.65891" lon="3.85453">
        <ele>30</ele>
        <time>2014-02-09T09:00:31Z</time>
      </trkpt>
      <trkpt lat="50.65887" lon="3.85471">
        <ele>31</ele>
        <time>2014-02-09T09:00:39Z</time>
      </trkpt>
      <trkpt lat="50.6588" lon="3.85496">
        <ele>30</ele>
        <time>2014-02-09T09:00:50Z</time>
      </trkpt>
      <trkpt lat="50.65871" lon="3.85517">
        <ele>31</ele>
        <time>2014-02-09T09:01:01Z</time>
      </trkpt>
      <trkpt lat="50.65857" lon="3.85528">
        <ele>30</ele>
        <time>2014-02-09T09:01:12Z</time>
      </trkpt>
      <trkpt lat="50.65842" lon="3.85537">
        <ele>30</ele>
        <time>2014-02-09T09:01:23Z</time>
      </trkpt>
      <trkpt lat="50.65828" lon="3.85543">
        <ele>30</ele>
        <time>2014-02-09T09:01:34Z</time>
      </trkpt>
      <trkpt lat="50.65814" lon="3.8555">
        <ele>30</ele>
        <time>2014-02-09T09:01:45Z</time>
      </trkpt>
      <trkpt lat="50.65794" lon="3.85558">
        <ele>30</ele>
        <time>2014-02-09T09:01:59Z</time>
      </trkpt>
      <trkpt lat="50.65781" lon="3.85559">
        <ele>30</ele>
        <time>2014-02-09T09:02:08Z</time>
      </trkpt>
      <trkpt lat="50.65775" lon="3.85544">
        <ele>30</ele>
        <time>2014-02-09T09:02:18Z</time>
      </trkpt>
      <trkpt lat="50.65773" lon="3.85526">
        <ele>29</ele>
        <time>2014-02-09T09:02:29Z</time>
      </trkpt>
      <trkpt lat="50.65772" lon="3.85504">
        <ele>29</ele>
        <time>2014-02-09T09:02:41Z</time>
      </trkpt>
      <trkpt lat="50.6577" lon="3.85487">
        <ele>29</ele>
        <time>2014-02-09T09:02:51Z</time>
      </trkpt>
      <trkpt lat="50.65766" lon="3.85465">
        <ele>29</ele>
        <time>2014-02-09T09:03:02Z</time>
      </trkpt>
      <trkpt lat="50.65762" lon="3.85421">
        <ele>30</ele>
        <time>2014-02-09T09:03:21Z</time>
      </trkpt>
      <trkpt lat="50.65757" lon="3.854">
        <ele>30</ele>
        <time>2014-02-09T09:03:29Z</time>
      </trkpt>
      <trkpt lat="50.65755" lon="3.85386">
        <ele>30</ele>
        <time>2014-02-09T09:03:35Z</time>
      </trkpt>
      <trkpt lat="50.6575" lon="3.85361">
        <ele>30</ele>
        <time>2014-02-09T09:03:46Z</time>
      </trkpt>
      <trkpt lat="50.65744" lon="3.85336">
        <ele>30</ele>
        <time>2014-02-09T09:03:57Z</time>
      </trkpt>
      <trkpt lat="50.65738" lon="3.85311">
        <ele>30</ele>
        <time>2014-02-09T09:04:08Z</time>
      </trkpt>
      <trkpt lat="50.65737" lon="3.85289">
        <ele>29</ele>
        <time>2014-02-09T09:04:19Z</time>
      </trkpt>
      <trkpt lat="50.65731" lon="3.85267">
        <ele>29</ele>
        <time>2014-02-09T09:04:30Z</time>
      </trkpt>
      <trkpt lat="50.65727" lon="3.8524">
        <ele>28</ele>
        <time>2014-02-09T09:04:41Z</time>
      </trkpt>
      <trkpt lat="50.65723" lon="3.85215">
        <ele>28</ele>
        <time>2014-02-09T09:04:52Z</time>
      </trkpt>
      <trkpt lat="50.65718" lon="3.85193">
        <ele>28</ele>
        <time>2014-02-09T09:05:03Z</time>
      </trkpt>
      <trkpt lat="50.65714" lon="3.85168">
        <ele>28</ele>
        <time>2014-02-09T09:05:14Z</time>
      </trkpt>
      <trkpt lat="50.65708" lon="3.85141">
        <ele>28</ele>
        <time>2014-02-09T09:05:26Z</time>
      </trkpt>
      <trkpt lat="50.65705" lon="3.85118">
        <ele>28</ele>
        <time>2014-02-09T09:05:36Z</time>
      </trkpt>
      <trkpt lat="50.65708" lon="3.85063">
        <ele>27</ele>
        <time>2014-02-09T09:05:55Z</time>
      </trkpt>
      <trkpt lat="50.65709" lon="3.85058">
        <ele>27</ele>
        <time>2014-02-09T09:05:58Z</time>
      </trkpt>
      <trkpt lat="50.65714" lon="3.85033">
        <ele>27</ele>
        <time>2014-02-09T09:06:09Z</time>
      </trkpt>
      <trkpt lat="50.65715" lon="3.85008">
        <ele>27</ele>
        <time>2014-02-09T09:06:20Z</time>
      </trkpt>
      <trkpt lat="50.65714" lon="3.84982">
        <ele>28</ele>
        <time>2014-02-09T09:06:31Z</time>
      </trkpt>
      <trkpt lat="50.65709" lon="3.84958">
        <ele>28</ele>
        <time>2014-02-09T09:06:42Z</time>
      </trkpt>
      <trkpt lat="50.65704" lon="3.84934">
        <ele>28</ele>
        <time>2014-02-09T09:06:53Z</time>
      </trkpt>
      <trkpt lat="50.65697" lon="3.84914">
        <ele>28</ele>
        <time>2014-02-09T09:07:04Z</time>
      </trkpt>
      <trkpt lat="50.65699" lon="3.84893">
        <ele>28</ele>
        <time>2014-02-09T09:07:15Z</time>
      </trkpt>
      <trkpt lat="50.65697" lon="3.84875">
        <ele>28</ele>
        <time>2014-02-09T09:07:26Z</time>
      </trkpt>
      <trkpt lat="50.65697" lon="3.84847">
        <ele>28</ele>
        <time>2014-02-09T09:07:37Z</time>
      </trkpt>
      <trkpt lat="50.65686" lon="3.8485">
        <ele>28</ele>
        <time>2014-02-09T09:07:49Z</time>
      </trkpt>
      <trkpt lat="50.65672" lon="3.84853">
        <ele>28</ele>
        <time>2014-02-09T09:07:59Z</time>
      </trkpt>
      <trkpt lat="50.65657" lon="3.84854">
        <ele>29</ele>
        <time>2014-02-09T09:08:10Z</time>
      </trkpt>
      <trkpt lat="50.65641" lon="3.84849">
        <ele>29</ele>
        <time>2014-02-09T09:08:21Z</time>
      </trkpt>
      <trkpt lat="50.65626" lon="3.84843">
        <ele>29</ele>
        <time>2014-02-09T09:08:32Z</time>
      </trkpt>
      <trkpt lat="50.6561" lon="3.84838">
        <ele>29</ele>
        <time>2014-02-09T09:08:43Z</time>
      </trkpt>
      <trkpt lat="50.65594" lon="3.84833">
        <ele>30</ele>
        <time>2014-02-09T09:08:55Z</time>
      </trkpt>
      <trkpt lat="50.65579" lon="3.84829">
        <ele>30</ele>
        <time>2014-02-09T09:09:06Z</time>
      </trkpt>
      <trkpt lat="50.65564" lon="3.84826">
        <ele>30</ele>
        <time>2014-02-09T09:09:17Z</time>
      </trkpt>
      <trkpt lat="50.65548" lon="3.84824">
        <ele>30</ele>
        <time>2014-02-09T09:09:29Z</time>
      </trkpt>
      <trkpt lat="50.65534" lon="3.84818">
        <ele>30</ele>
        <time>2014-02-09T09:09:39Z</time>
      </trkpt>
      <trkpt lat="50.65519" lon="3.84817">
        <ele>30</ele>
        <time>2014-02-09T09:09:50Z</time>
      </trkpt>
      <trkpt lat="50.65504" lon="3.84813">
        <ele>30</ele>
        <time>2014-02-09T09:10:01Z</time>
      </trkpt>
      <trkpt lat="50.65489" lon="3.84809">
        <ele>30</ele>
        <time>2014-02-09T09:10:12Z</time>
      </trkpt>
      <trkpt lat="50.65475" lon="3.84804">
        <ele>30</ele>
        <time>2014-02-09T09:10:23Z</time>
      </trkpt>
      <trkpt lat="50.65459" lon="3.84801">
        <ele>30</ele>
        <time>2014-02-09T09:10:35Z</time>
      </trkpt>
      <trkpt lat="50.65445" lon="3.84798">
        <ele>30</ele>
        <time>2014-02-09T09:10:45Z</time>
      </trkpt>
      <trkpt lat="50.65431" lon="3.84794">
        <ele>30</ele>
        <time>2014-02-09T09:10:56Z</time>
      </trkpt>
      <trkpt lat="50.65417" lon="3.84792">
        <ele>29</ele>
        <time>2014-02-09T09:11:08Z</time>
      </trkpt>
      <trkpt lat="50.65404" lon="3.84796">
        <ele>30</ele>
        <time>2014-02-09T09:11:18Z</time>
      </trkpt>
      <trkpt lat="50.65388" lon="3.84797">
        <ele>30</ele>
        <time>2014-02-09T09:11:29Z</time>
      </trkpt>
      <trkpt lat="50.65372" lon="3.84798">
        <ele>31</ele>
        <time>2014-02-09T09:11:41Z</time>
      </trkpt>
      <trkpt lat="50.6536" lon="3.848">
        <ele>31</ele>
        <time>2014-02-09T09:11:51Z</time>
      </trkpt>
      <trkpt lat="50.65346" lon="3.84796">
        <ele>31</ele>
        <time>2014-02-09T09:12:02Z</time>
      </trkpt>
      <trkpt lat="50.65331" lon="3.84792">
        <ele>32</ele>
        <time>2014-02-09T09:12:14Z</time>
      </trkpt>
      <trkpt lat="50.65315" lon="3.84782">
        <ele>32</ele>
        <time>2014-02-09T09:12:24Z</time>
      </trkpt>
      <trkpt lat="50.653" lon="3.84775">
        <ele>32</ele>
        <time>2014-02-09T09:12:35Z</time>
      </trkpt>
      <trkpt lat="50.65286" lon="3.84768">
        <ele>32</ele>
        <time>2014-02-09T09:12:46Z</time>
      </trkpt>
      <trkpt lat="50.65272" lon="3.84764">
        <ele>32</ele>
        <time>2014-02-09T09:12:57Z</time>
      </trkpt>
      <trkpt lat="50.65258" lon="3.84761">
        <ele>33</ele>
        <time>2014-02-09T09:13:08Z</time>
      </trkpt>
      <trkpt lat="50.65242" lon="3.84746">
        <ele>33</ele>
        <time>2014-02-09T09:13:19Z</time>
      </trkpt>
      <trkpt lat="50.65228" lon="3.8474">
        <ele>34</ele>
        <time>2014-02-09T09:13:30Z</time>
      </trkpt>
      <trkpt lat="50.65214" lon="3.84735">
        <ele>34</ele>
        <time>2014-02-09T09:13:41Z</time>
      </trkpt>
      <trkpt lat="50.652" lon="3.84728">
        <ele>34</ele>
        <time>2014-02-09T09:13:52Z</time>
      </trkpt>
      <trkpt lat="50.65186" lon="3.84724">
        <ele>34</ele>
        <time>2014-02-09T09:14:03Z</time>
      </trkpt>
      <trkpt lat="50.65172" lon="3.84719">
        <ele>34</ele>
        <time>2014-02-09T09:14:14Z</time>
      </trkpt>
      <trkpt lat="50.65161" lon="3.84716">
        <ele>35</ele>
        <time>2014-02-09T09:14:25Z</time>
      </trkpt>
      <trkpt lat="50.65147" lon="3.8471">
        <ele>35</ele>
        <time>2014-02-09T09:14:37Z</time>
      </trkpt>
      <trkpt lat="50.65135" lon="3.84703">
        <ele>36</ele>
        <time>2014-02-09T09:14:47Z</time>
      </trkpt>
      <trkpt lat="50.65122" lon="3.84695">
        <ele>36</ele>
        <time>2014-02-09T09:14:58Z</time>
      </trkpt>
      <trkpt lat="50.65111" lon="3.84683">
        <ele>36</ele>
        <time>2014-02-09T09:15:09Z</time>
      </trkpt>
      <trkpt lat="50.65103" lon="3.84677">
        <ele>36</ele>
        <time>2014-02-09T09:15:20Z</time>
      </trkpt>
      <trkpt lat="50.6509" lon="3.84669">
        <ele>37</ele>
        <time>2014-02-09T09:15:31Z</time>
      </trkpt>
      <trkpt lat="50.65078" lon="3.84658">
        <ele>37</ele>
        <time>2014-02-09T09:15:42Z</time>
      </trkpt>
      <trkpt lat="50.65065" lon="3.84647">
        <ele>36</ele>
        <time>2014-02-09T09:15:53Z</time>
      </trkpt>
      <trkpt lat="50.65057" lon="3.84638">
        <ele>36</ele>
        <time>2014-02-09T09:16:04Z</time>
      </trkpt>
      <trkpt lat="50.65056" lon="3.84632">
        <ele>36</ele>
        <time>2014-02-09T09:16:15Z</time>
      </trkpt>
      <trkpt lat="50.65046" lon="3.84649">
        <ele>36</ele>
        <time>2014-02-09T09:16:27Z</time>
      </trkpt>
      <trkpt lat="50.65036" lon="3.84669">
        <ele>37</ele>
        <time>2014-02-09T09:16:37Z</time>
      </trkpt>
      <trkpt lat="50.65029" lon="3.8469">
        <ele>37</ele>
        <time>2014-02-09T09:16:48Z</time>
      </trkpt>
      <trkpt lat="50.65022" lon="3.84709">
        <ele>37</ele>
        <time>2014-02-09T09:16:59Z</time>
      </trkpt>
      <trkpt lat="50.65013" lon="3.84735">
        <ele>38</ele>
        <time>2014-02-09T09:17:12Z</time>
      </trkpt>
      <trkpt lat="50.65006" lon="3.84751">
        <ele>38</ele>
        <time>2014-02-09T09:17:22Z</time>
      </trkpt>
      <trkpt lat="50.64999" lon="3.84774">
        <ele>40</ele>
        <time>2014-02-09T09:17:35Z</time>
      </trkpt>
      <trkpt lat="50.64989" lon="3.84793">
        <ele>40</ele>
        <time>2014-02-09T09:17:48Z</time>
      </trkpt>
      <trkpt lat="50.64971" lon="3.84797">
        <ele>41</ele>
        <time>2014-02-09T09:18:00Z</time>
      </trkpt>
      <trkpt lat="50.6497" lon="3.84791">
        <ele>41</ele>
        <time>2014-02-09T09:18:05Z</time>
      </trkpt>
      <trkpt lat="50.64947" lon="3.84781">
        <ele>41</ele>
        <time>2014-02-09T09:18:23Z</time>
      </trkpt>
    </trkseg>
  </trk>
</gpx>